Time,TemperatureF,DewpointF,PressureIn,WindDirection,WindDirectionDegrees,WindSpeedMPH,WindSpeedGustMPH,Humidity,HourlyPrecipIn,Conditions,Clouds,dailyrainin,SolarRadiationWatts/m^2,SoftwareType,DateUTC
2013-01-08 00:12:00,20.0,17.0,-100.00,WNW,290,1.0,4.0,88,0.00,,,0.00,0.000000,,2013-01-08 07:12:00,
2013-01-08 00:22:00,20.0,17.0,-100.00,WNW,290,1.0,4.0,88,0.00,,,0.00,0.000000,,2013-01-08 07:22:00,
2013-01-08 00:32:00,20.0,17.0,-100.00,WNW,290,1.0,4.0,88,0.00,,,0.00,0.000000,,2013-01-08 07:32:00,
2013-01-08 00:42:00,20.0,17.0,-100.00,WNW,290,1.0,4.0,88,0.00,,,0.00,0.000000,,2013-01-08 07:42:00,
2013-01-08 00:52:00,19.0,16.0,-100.00,WSW,247,0.0,4.0,88,0.00,,,0.00,0.000000,,2013-01-08 07:52:00,
2013-01-08 01:22:00,19.0,16.0,-100.00,WSW,247,0.0,4.0,88,0.00,,,0.00,0.000000,,2013-01-08 08:22:00,
2013-01-08 01:32:00,19.0,16.0,-100.00,WSW,247,0.0,4.0,88,0.00,,,0.00,0.000000,,2013-01-08 08:32:00,
2013-01-08 01:42:00,19.0,16.0,-100.00,WSW,247,0.0,4.0,88,0.00,,,0.00,0.000000,,2013-01-08 08:42:00,
2013-01-08 01:52:00,19.0,16.0,-100.00,WSW,238,0.0,4.0,88,0.00,,,0.00,0.000000,,2013-01-08 08:52:00,
2013-01-08 02:12:00,19.0,16.0,-100.00,WSW,238,0.0,4.0,88,0.00,,,0.00,0.000000,,2013-01-08 09:12:00,
2013-01-08 02:22:00,19.0,16.0,-100.00,WSW,238,0.0,4.0,88,0.00,,,0.00,0.000000,,2013-01-08 09:22:00,
2013-01-08 02:32:00,19.0,16.0,-100.00,WSW,238,0.0,4.0,88,0.00,,,0.00,0.000000,,2013-01-08 09:32:00,
2013-01-08 02:42:00,19.0,16.0,-100.00,WSW,238,0.0,4.0,88,0.00,,,0.00,0.000000,,2013-01-08 09:42:00,
2013-01-08 02:52:00,20.0,17.0,-100.00,West,267,1.0,7.0,89,0.00,,,0.00,0.000000,,2013-01-08 09:52:00,
2013-01-08 03:12:00,20.0,17.0,-100.00,West,267,1.0,7.0,89,0.00,,,0.00,0.000000,,2013-01-08 10:12:00,
2013-01-08 03:22:00,20.0,17.0,-100.00,West,267,1.0,7.0,89,0.00,,,0.00,0.000000,,2013-01-08 10:22:00,
2013-01-08 03:32:00,20.0,17.0,-100.00,West,267,1.0,7.0,89,0.00,,,0.00,0.000000,,2013-01-08 10:32:00,
2013-01-08 03:42:00,20.0,17.0,-100.00,West,267,1.0,7.0,89,0.00,,,0.00,0.000000,,2013-01-08 10:42:00,
2013-01-08 03:52:00,21.0,18.0,-100.00,West,268,1.0,8.0,89,0.00,,,0.00,0.000000,,2013-01-08 10:52:00,
2013-01-08 04:12:00,21.0,18.0,-100.00,West,268,1.0,8.0,89,0.00,,,0.00,0.000000,,2013-01-08 11:12:00,
2013-01-08 04:22:00,21.0,18.0,-100.00,West,268,1.0,8.0,89,0.00,,,0.00,0.000000,,2013-01-08 11:22:00,
2013-01-08 04:32:00,21.0,18.0,-100.00,West,268,1.0,8.0,89,0.00,,,0.00,0.000000,,2013-01-08 11:32:00,
2013-01-08 04:42:00,21.0,18.0,-100.00,West,268,1.0,8.0,89,0.00,,,0.00,0.000000,,2013-01-08 11:42:00,
2013-01-08 04:52:00,20.0,18.0,-100.00,SSE,147,0.0,4.0,90,0.00,,,0.00,0.000000,,2013-01-08 11:52:00,
2013-01-08 05:12:00,20.0,18.0,-100.00,SSE,147,0.0,4.0,90,0.00,,,0.00,0.000000,,2013-01-08 12:12:00,
2013-01-08 05:22:00,20.0,18.0,-100.00,SSE,147,0.0,4.0,90,0.00,,,0.00,0.000000,,2013-01-08 12:22:00,
2013-01-08 05:32:00,20.0,18.0,-100.00,SSE,147,0.0,4.0,90,0.00,,,0.00,0.000000,,2013-01-08 12:32:00,
2013-01-08 05:42:00,20.0,18.0,-100.00,SSE,147,0.0,4.0,90,0.00,,,0.00,0.000000,,2013-01-08 12:42:00,
2013-01-08 05:52:00,21.0,19.0,-100.00,WSW,241,0.0,4.0,90,0.00,,,0.00,0.000000,,2013-01-08 12:52:00,
2013-01-08 06:12:00,21.0,19.0,-100.00,WSW,241,0.0,4.0,90,0.00,,,0.00,0.000000,,2013-01-08 13:12:00,
2013-01-08 06:22:00,21.0,19.0,-100.00,WSW,241,0.0,4.0,90,0.00,,,0.00,0.000000,,2013-01-08 13:22:00,
2013-01-08 06:32:00,21.0,19.0,-100.00,WSW,241,0.0,4.0,90,0.00,,,0.00,0.000000,,2013-01-08 13:32:00,
2013-01-08 06:42:00,21.0,19.0,-100.00,WSW,241,0.0,4.0,90,0.00,,,0.00,0.000000,,2013-01-08 13:42:00,
2013-01-08 06:52:00,20.0,18.0,-100.00,SE,139,0.0,3.0,90,0.00,,,0.00,0.000000,,2013-01-08 13:52:00,
2013-01-08 07:12:00,20.0,18.0,-100.00,SE,139,0.0,3.0,90,0.00,,,0.00,0.000000,,2013-01-08 14:12:00,
2013-01-08 07:23:00,20.0,18.0,-100.00,SE,139,0.0,3.0,90,0.00,,,0.00,0.000000,,2013-01-08 14:23:00,
2013-01-08 07:33:00,20.0,18.0,-100.00,SE,139,0.0,3.0,90,0.00,,,0.00,0.000000,,2013-01-08 14:33:00,
2013-01-08 07:42:00,20.0,18.0,-100.00,SE,139,0.0,3.0,90,0.00,,,0.00,0.000000,,2013-01-08 14:42:00,
2013-01-08 07:52:00,20.0,18.0,-100.00,WSW,244,0.0,3.0,92,0.00,,,0.00,0.000000,,2013-01-08 14:52:00,
2013-01-08 08:12:00,20.0,18.0,-100.00,WSW,244,0.0,3.0,92,0.00,,,0.00,0.000000,,2013-01-08 15:12:00,
2013-01-08 08:22:00,20.0,18.0,-100.00,WSW,244,0.0,3.0,92,0.00,,,0.00,0.000000,,2013-01-08 15:22:00,
2013-01-08 08:33:00,20.0,18.0,-100.00,WSW,244,0.0,3.0,92,0.00,,,0.00,0.000000,,2013-01-08 15:33:00,
2013-01-08 08:42:00,20.0,18.0,-100.00,WSW,244,0.0,3.0,92,0.00,,,0.00,0.000000,,2013-01-08 15:42:00,
2013-01-08 08:52:00,21.0,17.0,-100.00,East,80,0.0,5.0,86,0.00,,,0.00,10.000000,,2013-01-08 15:52:00,
2013-01-08 09:12:00,21.0,17.0,-100.00,East,80,0.0,5.0,86,0.00,,,0.00,10.000000,,2013-01-08 16:12:00,
2013-01-08 09:22:00,21.0,17.0,-100.00,East,80,0.0,5.0,86,0.00,,,0.00,10.000000,,2013-01-08 16:22:00,
2013-01-08 09:33:00,21.0,17.0,-100.00,East,80,0.0,5.0,86,0.00,,,0.00,10.000000,,2013-01-08 16:33:00,
2013-01-08 09:42:00,21.0,17.0,-100.00,East,80,0.0,5.0,86,0.00,,,0.00,10.000000,,2013-01-08 16:42:00,
2013-01-08 09:52:00,23.0,19.0,-100.00,East,98,0.0,6.0,83,0.00,,,0.00,35.000000,,2013-01-08 16:52:00,
2013-01-08 10:12:00,23.0,19.0,-100.00,East,98,0.0,6.0,83,0.00,,,0.00,35.000000,,2013-01-08 17:12:00,
2013-01-08 10:23:00,23.0,19.0,-100.00,East,98,0.0,6.0,83,0.00,,,0.00,35.000000,,2013-01-08 17:23:00,
2013-01-08 10:33:00,23.0,19.0,-100.00,East,98,0.0,6.0,83,0.00,,,0.00,35.000000,,2013-01-08 17:33:00,
2013-01-08 10:42:00,23.0,19.0,-100.00,East,98,0.0,6.0,83,0.00,,,0.00,35.000000,,2013-01-08 17:42:00,
2013-01-08 10:52:00,26.0,20.0,-100.00,WNW,292,5.0,9.0,77,0.00,,,0.00,48.000000,,2013-01-08 17:52:00,
2013-01-08 11:23:00,26.0,20.0,-100.00,WNW,292,5.0,9.0,77,0.00,,,0.00,48.000000,,2013-01-08 18:23:00,
2013-01-08 11:33:00,26.0,20.0,-100.00,WNW,292,5.0,9.0,77,0.00,,,0.00,48.000000,,2013-01-08 18:33:00,
2013-01-08 11:43:00,26.0,20.0,-100.00,WNW,292,5.0,9.0,77,0.00,,,0.00,48.000000,,2013-01-08 18:43:00,
2013-01-08 11:52:00,28.0,20.0,-100.00,NNE,13,5.0,12.0,72,0.00,,,0.00,64.000000,,2013-01-08 18:52:00,
2013-01-08 12:12:00,28.0,20.0,-100.00,NNE,13,5.0,12.0,72,0.00,,,0.00,64.000000,,2013-01-08 19:12:00,
2013-01-08 12:22:00,28.0,20.0,-100.00,NNE,13,5.0,12.0,72,0.00,,,0.00,64.000000,,2013-01-08 19:22:00,
2013-01-08 12:32:00,28.0,20.0,-100.00,NNE,13,5.0,12.0,72,0.00,,,0.00,64.000000,,2013-01-08 19:32:00,
2013-01-08 12:42:00,28.0,20.0,-100.00,NNE,13,5.0,12.0,72,0.00,,,0.00,64.000000,,2013-01-08 19:42:00,
2013-01-08 12:52:00,29.0,18.0,-100.00,WNW,294,5.0,14.0,64,0.00,,,0.00,79.000000,,2013-01-08 19:52:00,
2013-01-08 13:22:00,29.0,18.0,-100.00,WNW,294,5.0,14.0,64,0.00,,,0.00,79.000000,,2013-01-08 20:22:00,
2013-01-08 13:33:00,29.0,18.0,-100.00,WNW,294,5.0,14.0,64,0.00,,,0.00,79.000000,,2013-01-08 20:33:00,
2013-01-08 13:43:00,29.0,18.0,-100.00,WNW,294,5.0,14.0,64,0.00,,,0.00,79.000000,,2013-01-08 20:43:00,
2013-01-08 13:52:00,29.0,18.0,-100.00,West,262,5.0,18.0,62,0.00,,,0.00,80.000000,,2013-01-08 20:52:00,
2013-01-08 14:12:00,29.0,18.0,-100.00,West,262,5.0,18.0,62,0.00,,,0.00,80.000000,,2013-01-08 21:12:00,
2013-01-08 14:22:00,29.0,18.0,-100.00,West,262,5.0,18.0,62,0.00,,,0.00,80.000000,,2013-01-08 21:22:00,
2013-01-08 14:33:00,29.0,18.0,-100.00,West,262,5.0,18.0,62,0.00,,,0.00,80.000000,,2013-01-08 21:33:00,
2013-01-08 14:42:00,29.0,18.0,-100.00,West,262,5.0,18.0,62,0.00,,,0.00,80.000000,,2013-01-08 21:42:00,
2013-01-08 14:52:00,29.0,17.0,-100.00,NW,312,6.0,19.0,61,0.00,,,0.00,92.000000,,2013-01-08 21:52:00,
2013-01-08 15:12:00,29.0,17.0,-100.00,NW,312,6.0,19.0,61,0.00,,,0.00,92.000000,,2013-01-08 22:12:00,
2013-01-08 15:22:00,29.0,17.0,-100.00,NW,312,6.0,19.0,61,0.00,,,0.00,92.000000,,2013-01-08 22:22:00,
2013-01-08 15:32:00,29.0,17.0,-100.00,NW,312,6.0,19.0,61,0.00,,,0.00,92.000000,,2013-01-08 22:32:00,
2013-01-08 15:42:00,29.0,17.0,-100.00,NW,312,6.0,19.0,61,0.00,,,0.00,92.000000,,2013-01-08 22:42:00,
2013-01-08 15:52:00,28.0,17.0,-100.00,West,259,4.0,16.0,64,0.00,,,0.00,61.000000,,2013-01-08 22:52:00,
2013-01-08 16:22:00,28.0,17.0,-100.00,West,259,4.0,16.0,64,0.00,,,0.00,61.000000,,2013-01-08 23:22:00,
2013-01-08 16:32:00,28.0,17.0,-100.00,West,259,4.0,16.0,64,0.00,,,0.00,61.000000,,2013-01-08 23:32:00,
2013-01-08 16:42:00,28.0,17.0,-100.00,West,259,4.0,16.0,64,0.00,,,0.00,61.000000,,2013-01-08 23:42:00,
2013-01-08 16:52:00,27.0,18.0,-100.00,WNW,290,5.0,15.0,67,0.00,,,0.00,54.000000,,2013-01-08 23:52:00,
2013-01-08 17:12:00,27.0,18.0,-100.00,WNW,290,5.0,15.0,67,0.00,,,0.00,54.000000,,2013-01-09 00:12:00,
2013-01-08 17:22:00,27.0,18.0,-100.00,WNW,290,5.0,15.0,67,0.00,,,0.00,54.000000,,2013-01-09 00:22:00,
2013-01-08 17:32:00,27.0,18.0,-100.00,WNW,290,5.0,15.0,67,0.00,,,0.00,54.000000,,2013-01-09 00:32:00,
2013-01-08 17:42:00,27.0,18.0,-100.00,WNW,290,5.0,15.0,67,0.00,,,0.00,54.000000,,2013-01-09 00:42:00,
2013-01-08 17:52:00,25.0,17.0,-100.00,NW,307,3.0,9.0,72,0.00,,,0.00,0.000000,,2013-01-09 00:52:00,
2013-01-08 18:22:00,25.0,17.0,-100.00,NW,307,3.0,9.0,72,0.00,,,0.00,0.000000,,2013-01-09 01:22:00,
2013-01-08 18:32:00,25.0,17.0,-100.00,NW,307,3.0,9.0,72,0.00,,,0.00,0.000000,,2013-01-09 01:32:00,
2013-01-08 18:42:00,25.0,17.0,-100.00,NW,307,3.0,9.0,72,0.00,,,0.00,0.000000,,2013-01-09 01:42:00,
2013-01-08 18:52:00,25.0,18.0,-100.00,WNW,296,3.0,10.0,74,0.00,,,0.00,0.000000,,2013-01-09 01:52:00,
2013-01-08 19:22:00,25.0,18.0,-100.00,WNW,296,3.0,10.0,74,0.00,,,0.00,0.000000,,2013-01-09 02:22:00,
2013-01-08 19:32:00,25.0,18.0,-100.00,WNW,296,3.0,10.0,74,0.00,,,0.00,0.000000,,2013-01-09 02:32:00,
2013-01-08 19:42:00,25.0,18.0,-100.00,WNW,296,3.0,10.0,74,0.00,,,0.00,0.000000,,2013-01-09 02:42:00,
2013-01-08 19:52:00,25.0,19.0,-100.00,NNE,14,0.0,8.0,77,0.00,,,0.00,0.000000,,2013-01-09 02:52:00,
2013-01-08 20:12:00,25.0,19.0,-100.00,NNE,14,0.0,8.0,77,0.00,,,0.00,0.000000,,2013-01-09 03:12:00,
2013-01-08 20:22:00,25.0,19.0,-100.00,NNE,14,0.0,8.0,77,0.00,,,0.00,0.000000,,2013-01-09 03:22:00,
2013-01-08 20:32:00,25.0,19.0,-100.00,NNE,14,0.0,8.0,77,0.00,,,0.00,0.000000,,2013-01-09 03:32:00,
2013-01-08 20:42:00,25.0,19.0,-100.00,NNE,14,0.0,8.0,77,0.00,,,0.00,0.000000,,2013-01-09 03:42:00,
2013-01-08 20:52:00,24.0,19.0,-100.00,SE,133,0.0,6.0,82,0.00,,,0.00,0.000000,,2013-01-09 03:52:00,
2013-01-08 21:12:00,24.0,19.0,-100.00,SE,133,0.0,6.0,82,0.00,,,0.00,0.000000,,2013-01-09 04:12:00,
2013-01-08 21:22:00,24.0,19.0,-100.00,SE,133,0.0,6.0,82,0.00,,,0.00,0.000000,,2013-01-09 04:22:00,
2013-01-08 21:32:00,24.0,19.0,-100.00,SE,133,0.0,6.0,82,0.00,,,0.00,0.000000,,2013-01-09 04:32:00,
2013-01-08 21:42:00,24.0,19.0,-100.00,SE,133,0.0,6.0,82,0.00,,,0.00,0.000000,,2013-01-09 04:42:00,
2013-01-08 21:52:00,25.0,20.0,-100.00,ESE,111,0.0,2.0,82,0.00,,,0.00,0.000000,,2013-01-09 04:52:00,
2013-01-08 22:12:00,25.0,20.0,-100.00,ESE,111,0.0,2.0,82,0.00,,,0.00,0.000000,,2013-01-09 05:12:00,
2013-01-08 22:22:00,25.0,20.0,-100.00,ESE,111,0.0,2.0,82,0.00,,,0.00,0.000000,,2013-01-09 05:22:00,
2013-01-08 22:33:00,25.0,20.0,-100.00,ESE,111,0.0,2.0,82,0.00,,,0.00,0.000000,,2013-01-09 05:33:00,
2013-01-08 22:42:00,25.0,20.0,-100.00,ESE,111,0.0,2.0,82,0.00,,,0.00,0.000000,,2013-01-09 05:42:00,
2013-01-08 22:52:00,24.0,20.0,-100.00,East,85,0.0,0.0,86,0.00,,,0.00,0.000000,,2013-01-09 05:52:00,
2013-01-08 23:12:00,24.0,20.0,-100.00,East,85,0.0,0.0,86,0.00,,,0.00,0.000000,,2013-01-09 06:12:00,
2013-01-08 23:22:00,24.0,20.0,-100.00,East,85,0.0,0.0,86,0.00,,,0.00,0.000000,,2013-01-09 06:22:00,
2013-01-08 23:32:00,24.0,20.0,-100.00,East,85,0.0,0.0,86,0.00,,,0.00,0.000000,,2013-01-09 06:32:00,
2013-01-08 23:42:00,24.0,20.0,-100.00,East,85,0.0,0.0,86,0.00,,,0.00,0.000000,,2013-01-09 06:42:00,
2013-01-08 23:52:00,23.0,20.0,-100.00,ENE,77,2.0,6.0,87,0.00,,,0.00,0.000000,,2013-01-09 06:52:00,